Time;durP1;ratioP1;P1;durP2;ratioP2;P2;SDS_P1;SDS_P2;PMS_P1;PMS_P2;Temp;Humidity;BMP_temperature;BMP_pressure;BME280_temperature;BME280_humidity;BME280_pressure;Samples;Min_cycle;Max_cycle;Signal;HPM_P1;HPM_P2
2022/05/07 00:00:32;;;;;;;18.27;13.10;;;;;;;;;;5031353;28;20132;-62
2022/05/07 00:02:58;;;;;;;19.25;13.88;;;;;;;;;;5031297;28;20059;-62
2022/05/07 00:05:24;;;;;;;18.60;14.00;;;;;;;;;;5019916;28;20483;-62
2022/05/07 00:07:51;;;;;;;19.33;14.93;;;;;;;;;;5026519;28;20030;-62
2022/05/07 00:10:17;;;;;;;20.73;14.70;;;;;;;;;;5025933;28;20466;-62
2022/05/07 00:12:43;;;;;;;18.92;13.60;;;;;;;;;;5031015;28;20552;-62
2022/05/07 00:15:09;;;;;;;15.10;11.38;;;;;;;;;;5027656;28;20124;-63
2022/05/07 00:20:20;;;;;;;15.30;12.18;;;;;;;;;;5029549;28;20582;-62
2022/05/07 00:22:46;;;;;;;16.83;12.23;;;;;;;;;;5030205;28;20080;-62
2022/05/07 00:25:13;;;;;;;14.60;11.57;;;;;;;;;;5028505;28;20049;-62
2022/05/07 00:27:39;;;;;;;14.65;12.50;;;;;;;;;;5026598;28;20033;-62
2022/05/07 00:30:06;;;;;;;13.15;10.05;;;;;;;;;;5028495;28;20045;-62
2022/05/07 00:32:32;;;;;;;15.13;11.23;;;;;;;;;;5021751;28;20488;-62
2022/05/07 00:34:58;;;;;;;17.63;11.95;;;;;;;;;;5030471;28;20042;-62
2022/05/07 00:37:24;;;;;;;18.88;13.35;;;;;;;;;;5028779;28;20483;-62
2022/05/07 00:39:50;;;;;;;17.25;13.70;;;;;;;;;;5030543;28;20033;-62
2022/05/07 00:42:17;;;;;;;19.35;14.52;;;;;;;;;;5025240;28;20037;-62
2022/05/07 00:44:43;;;;;;;17.63;13.88;;;;;;;;;;5029185;28;20056;-62
2022/05/07 00:47:15;;;;;;;17.40;14.80;;;;;;;;;;5026285;28;20039;-62
2022/05/07 00:49:42;;;;;;;23.17;17.10;;;;;;;;;;5029327;28;20025;-62
2022/05/07 00:52:08;;;;;;;20.25;15.02;;;;;;;;;;5030039;28;20037;-62
2022/05/07 00:54:34;;;;;;;18.45;13.15;;;;;;;;;;5028277;28;20120;-63
2022/05/07 00:57:00;;;;;;;16.52;12.52;;;;;;;;;;5028892;28;20049;-62
2022/05/07 00:59:26;;;;;;;21.20;14.60;;;;;;;;;;5034107;28;20132;-63
2022/05/07 01:01:52;;;;;;;21.27;15.68;;;;;;;;;;5034229;28;20415;-63
2022/05/07 01:04:18;;;;;;;20.70;15.48;;;;;;;;;;5032834;28;20044;-61
2022/05/07 01:06:44;;;;;;;26.27;15.63;;;;;;;;;;5026688;28;20037;-61
2022/05/07 01:09:11;;;;;;;20.33;14.85;;;;;;;;;;5033652;28;20044;-61
2022/05/07 01:11:37;;;;;;;21.73;16.25;;;;;;;;;;5034538;28;20076;-61
2022/05/07 01:14:03;;;;;;;23.88;17.70;;;;;;;;;;5033397;28;20451;-61
2022/05/07 01:16:29;;;;;;;22.35;17.10;;;;;;;;;;5033987;28;20038;-61
2022/05/07 01:18:55;;;;;;;24.48;18.05;;;;;;;;;;5024968;28;20104;-62
2022/05/07 01:21:21;;;;;;;24.60;18.58;;;;;;;;;;5033605;28;20079;-62
2022/05/07 01:23:47;;;;;;;24.92;18.88;;;;;;;;;;5034171;28;20454;-62
2022/05/07 01:26:14;;;;;;;23.33;17.40;;;;;;;;;;5029422;28;20076;-62
2022/05/07 01:28:40;;;;;;;20.63;17.13;;;;;;;;;;5033132;28;20095;-62
2022/05/07 01:31:07;;;;;;;25.33;19.20;;;;;;;;;;5033959;28;20041;-61
2022/05/07 01:33:34;;;;;;;26.48;18.85;;;;;;;;;;5032265;28;20462;-62
2022/05/07 01:36:03;;;;;;;29.83;21.17;;;;;;;;;;5029219;28;20169;-62
2022/05/07 01:38:30;;;;;;;28.63;21.58;;;;;;;;;;5027194;28;20037;-62
2022/05/07 01:40:56;;;;;;;28.17;20.45;;;;;;;;;;5034678;28;20041;-62
2022/05/07 01:43:22;;;;;;;30.02;21.77;;;;;;;;;;5033246;28;20320;-62
2022/05/07 01:45:48;;;;;;;32.53;22.15;;;;;;;;;;5028321;28;20131;-62
2022/05/07 01:48:14;;;;;;;25.30;19.73;;;;;;;;;;5029083;28;20034;-62
2022/05/07 01:50:42;;;;;;;25.20;18.88;;;;;;;;;;5032205;28;20037;-62
2022/05/07 01:53:08;;;;;;;27.92;20.17;;;;;;;;;;5033737;28;20038;-62
2022/05/07 01:55:34;;;;;;;28.92;22.20;;;;;;;;;;5028404;28;20420;-62
2022/05/07 01:58:00;;;;;;;29.30;22.40;;;;;;;;;;5031456;28;20041;-62
2022/05/07 02:00:26;;;;;;;33.28;21.95;;;;;;;;;;5031136;28;20048;-62
2022/05/07 02:02:52;;;;;;;31.38;22.33;;;;;;;;;;5032270;28;20091;-63
2022/05/07 02:05:18;;;;;;;29.02;22.13;;;;;;;;;;5024056;28;20045;-62
2022/05/07 02:07:44;;;;;;;32.00;22.90;;;;;;;;;;5029913;28;20033;-62
2022/05/07 02:10:11;;;;;;;31.45;23.42;;;;;;;;;;5032830;28;20041;-62
2022/05/07 02:12:37;;;;;;;35.88;23.33;;;;;;;;;;5025704;28;20380;-62
2022/05/07 02:15:03;;;;;;;33.80;24.33;;;;;;;;;;5030242;28;20037;-62
2022/05/07 02:17:29;;;;;;;30.58;22.55;;;;;;;;;;5028991;28;20560;-62
2022/05/07 02:19:55;;;;;;;31.17;23.02;;;;;;;;;;5032242;28;20110;-63
2022/05/07 02:22:20;;;;;;;32.50;23.13;;;;;;;;;;5033017;28;20045;-62
2022/05/07 02:24:46;;;;;;;33.20;22.52;;;;;;;;;;5021807;28;20411;-62
2022/05/07 02:27:12;;;;;;;33.10;23.48;;;;;;;;;;5027025;28;20091;-62
2022/05/07 02:29:38;;;;;;;33.83;23.90;;;;;;;;;;5028067;28;20068;-62
2022/05/07 02:32:05;;;;;;;36.70;24.08;;;;;;;;;;5031833;28;20047;-62
2022/05/07 02:34:34;;;;;;;29.80;22.70;;;;;;;;;;5031547;28;20042;-62
2022/05/07 02:37:01;;;;;;;29.38;22.33;;;;;;;;;;5027624;28;20116;-62
2022/05/07 02:39:27;;;;;;;35.78;23.48;;;;;;;;;;5031715;28;20049;-62
2022/05/07 02:44:42;;;;;;;32.85;23.15;;;;;;;;;;5024259;28;20049;-58
2022/05/07 02:47:08;;;;;;;36.03;24.70;;;;;;;;;;5028146;28;20041;-58
2022/05/07 02:49:34;;;;;;;34.25;23.75;;;;;;;;;;5031753;28;20041;-57
2022/05/07 02:52:00;;;;;;;33.47;23.70;;;;;;;;;;5032802;28;20055;-58
2022/05/07 02:54:26;;;;;;;32.55;23.17;;;;;;;;;;5027924;28;20040;-59
2022/05/07 02:56:52;;;;;;;29.90;22.73;;;;;;;;;;5009211;28;20041;-59
2022/05/07 02:59:18;;;;;;;33.53;23.85;;;;;;;;;;5013647;28;20033;-59
2022/05/07 03:01:44;;;;;;;32.22;23.70;;;;;;;;;;5026302;28;20399;-59
2022/05/07 03:04:10;;;;;;;36.45;24.40;;;;;;;;;;5019897;28;20113;-59
2022/05/07 03:06:37;;;;;;;33.38;23.88;;;;;;;;;;5006592;28;20045;-59
2022/05/07 03:09:04;;;;;;;35.10;24.83;;;;;;;;;;5028600;28;20033;-59
2022/05/07 03:11:33;;;;;;;32.97;23.77;;;;;;;;;;5014814;28;20084;-59
2022/05/07 03:13:59;;;;;;;31.77;23.92;;;;;;;;;;5023093;28;20403;-58
2022/05/07 03:16:25;;;;;;;32.38;23.83;;;;;;;;;;5011426;28;20039;-58
2022/05/07 03:18:51;;;;;;;35.15;24.33;;;;;;;;;;5013496;28;20041;-58
2022/05/07 03:21:17;;;;;;;32.97;24.13;;;;;;;;;;5019059;28;20092;-58
2022/05/07 03:23:44;;;;;;;33.47;24.45;;;;;;;;;;5021495;28;20075;-59
2022/05/07 03:26:11;;;;;;;34.03;24.63;;;;;;;;;;5017061;28;20077;-58
2022/05/07 03:28:37;;;;;;;35.10;24.55;;;;;;;;;;5005244;28;20088;-59
2022/05/07 03:31:04;;;;;;;34.25;23.92;;;;;;;;;;5009687;28;20042;-58
2022/05/07 03:33:30;;;;;;;33.80;24.30;;;;;;;;;;5022323;28;20037;-59
2022/05/07 03:35:56;;;;;;;35.35;24.67;;;;;;;;;;5007718;28;20048;-59
2022/05/07 03:38:22;;;;;;;35.95;25.25;;;;;;;;;;5030353;28;20124;-59
2022/05/07 03:40:48;;;;;;;36.70;27.05;;;;;;;;;;5009134;28;20112;-59
2022/05/07 03:43:14;;;;;;;35.78;26.15;;;;;;;;;;5000602;28;20042;-59
2022/05/07 03:45:40;;;;;;;36.53;26.75;;;;;;;;;;5010293;28;20042;-59
2022/05/07 03:48:06;;;;;;;41.17;27.05;;;;;;;;;;5002900;28;20396;-59
2022/05/07 03:50:33;;;;;;;49.20;27.88;;;;;;;;;;5010464;28;20041;-59
2022/05/07 03:55:44;;;;;;;36.83;25.15;;;;;;;;;;5012139;28;20053;-59
2022/05/07 03:58:17;;;;;;;36.67;26.20;;;;;;;;;;5008081;28;20092;-59
2022/05/07 04:00:43;;;;;;;38.97;26.88;;;;;;;;;;5013078;28;20103;-59
2022/05/07 04:03:10;;;;;;;39.92;26.83;;;;;;;;;;5010797;28;20402;-58
2022/05/07 04:05:36;;;;;;;38.47;26.77;;;;;;;;;;5007043;28;20512;-58
2022/05/07 04:08:02;;;;;;;40.55;26.20;;;;;;;;;;5015561;28;20040;-58
2022/05/07 04:10:28;;;;;;;37.22;26.60;;;;;;;;;;5011304;28;20399;-58
2022/05/07 04:12:54;;;;;;;35.83;26.10;;;;;;;;;;5014400;28;20041;-58
2022/05/07 04:15:20;;;;;;;37.67;26.90;;;;;;;;;;5007765;28;20057;-58
2022/05/07 04:17:46;;;;;;;39.10;27.10;;;;;;;;;;5008229;28;20041;-58
2022/05/07 04:20:12;;;;;;;40.40;26.63;;;;;;;;;;5009673;28;20045;-58
2022/05/07 04:22:38;;;;;;;37.08;26.35;;;;;;;;;;5030567;28;20041;-58
2022/05/07 04:25:09;;;;;;;43.30;29.23;;;;;;;;;;5017924;28;20664;-58
2022/05/07 04:27:35;;;;;;;40.10;27.23;;;;;;;;;;5006641;28;20072;-58
2022/05/07 04:30:01;;;;;;;38.63;27.73;;;;;;;;;;5013865;28;20472;-58
2022/05/07 04:32:27;;;;;;;35.38;27.42;;;;;;;;;;5020550;28;20042;-58
2022/05/07 04:34:55;;;;;;;42.35;27.45;;;;;;;;;;5025673;28;20041;-58
2022/05/07 04:37:21;;;;;;;39.20;26.15;;;;;;;;;;5015847;28;20416;-58
2022/05/07 04:39:47;;;;;;;40.60;28.35;;;;;;;;;;5014749;28;20103;-58
2022/05/07 04:42:13;;;;;;;41.20;27.52;;;;;;;;;;5033187;28;20476;-58
2022/05/07 04:44:39;;;;;;;40.85;27.58;;;;;;;;;;5024714;28;20042;-58
2022/05/07 04:47:05;;;;;;;43.00;28.17;;;;;;;;;;5013747;28;20440;-58
2022/05/07 04:49:31;;;;;;;38.03;27.17;;;;;;;;;;5012243;28;20399;-58
2022/05/07 04:51:57;;;;;;;39.95;28.30;;;;;;;;;;5031043;28;20038;-58
2022/05/07 04:54:24;;;;;;;38.00;27.90;;;;;;;;;;5025063;28;20038;-58
2022/05/07 04:56:51;;;;;;;37.60;27.98;;;;;;;;;;5024464;28;20048;-58
2022/05/07 04:59:17;;;;;;;41.40;29.25;;;;;;;;;;5029987;28;20044;-59
2022/05/07 05:01:44;;;;;;;44.40;30.48;;;;;;;;;;5020787;28;20460;-59
2022/05/07 05:04:10;;;;;;;42.47;29.25;;;;;;;;;;5012389;28;20042;-59
2022/05/07 05:06:37;;;;;;;40.50;29.63;;;;;;;;;;5015681;28;20075;-58
2022/05/07 05:09:04;;;;;;;49.03;30.00;;;;;;;;;;5022446;28;20377;-58
2022/05/07 05:11:31;;;;;;;40.60;27.60;;;;;;;;;;5019998;28;20038;-58
2022/05/07 05:13:56;;;;;;;44.65;29.30;;;;;;;;;;5014564;28;20514;-58
2022/05/07 05:16:23;;;;;;;38.22;28.83;;;;;;;;;;5010943;28;20078;-58
2022/05/07 05:18:49;;;;;;;37.08;27.13;;;;;;;;;;5021163;28;20053;-58
2022/05/07 05:21:15;;;;;;;42.05;27.02;;;;;;;;;;5029722;28;20044;-58
2022/05/07 05:23:41;;;;;;;36.80;26.27;;;;;;;;;;5033003;28;20511;-58
2022/05/07 05:26:07;;;;;;;38.50;27.20;;;;;;;;;;5018329;28;20073;-58
2022/05/07 05:28:35;;;;;;;39.35;28.42;;;;;;;;;;5023792;28;20069;-58
2022/05/07 05:31:02;;;;;;;43.60;28.52;;;;;;;;;;5014549;28;20487;-58
2022/05/07 05:33:28;;;;;;;41.53;28.38;;;;;;;;;;5016687;28;20120;-58
2022/05/07 05:35:54;;;;;;;39.72;27.08;;;;;;;;;;5010721;28;20125;-58
2022/05/07 05:38:20;;;;;;;39.60;28.15;;;;;;;;;;5021203;28;20042;-58
2022/05/07 05:40:46;;;;;;;37.75;28.10;;;;;;;;;;5014677;28;20038;-58
2022/05/07 05:43:12;;;;;;;38.33;26.63;;;;;;;;;;5023210;28;20410;-58
2022/05/07 05:45:38;;;;;;;38.90;28.05;;;;;;;;;;5015834;28;20041;-58
2022/05/07 05:48:04;;;;;;;40.55;28.58;;;;;;;;;;5014222;28;20183;-59
2022/05/07 05:50:31;;;;;;;38.55;27.52;;;;;;;;;;5015770;28;20036;-58
2022/05/07 05:53:00;;;;;;;39.10;27.70;;;;;;;;;;5011977;28;20474;-59
2022/05/07 05:55:26;;;;;;;41.53;28.10;;;;;;;;;;5008150;28;20672;-59
2022/05/07 05:57:52;;;;;;;35.70;25.65;;;;;;;;;;5011032;28;20463;-59
2022/05/07 06:00:18;;;;;;;37.05;27.17;;;;;;;;;;5012800;28;20034;-58
2022/05/07 06:02:44;;;;;;;37.28;25.77;;;;;;;;;;5027023;28;20037;-59
2022/05/07 06:05:15;;;;;;;33.50;25.92;;;;;;;;;;5014870;28;20400;-59
2022/05/07 06:07:41;;;;;;;34.30;25.88;;;;;;;;;;5008503;28;20042;-58
2022/05/07 06:10:07;;;;;;;37.08;25.95;;;;;;;;;;5006892;28;20045;-59
2022/05/07 06:12:33;;;;;;;35.70;25.17;;;;;;;;;;5007755;28;20045;-59
2022/05/07 06:14:59;;;;;;;34.85;24.60;;;;;;;;;;5021010;28;20119;-59
2022/05/07 06:17:25;;;;;;;36.00;25.92;;;;;;;;;;5016055;28;20439;-59
2022/05/07 06:19:52;;;;;;;35.45;25.67;;;;;;;;;;5011015;28;20042;-59
2022/05/07 06:22:18;;;;;;;37.60;24.92;;;;;;;;;;5006803;28;20101;-58
2022/05/07 06:27:28;;;;;;;37.40;25.23;;;;;;;;;;5002299;28;20476;-59
2022/05/07 06:30:05;;;;;;;41.85;25.35;;;;;;;;;;5001188;28;20034;-59
2022/05/07 06:32:38;;;;;;;34.83;25.42;;;;;;;;;;5002371;28;20034;-59
2022/05/07 06:35:08;;;;;;;36.13;25.77;;;;;;;;;;4996619;28;20076;-59
2022/05/07 06:37:36;;;;;;;36.75;24.92;;;;;;;;;;5008141;28;20278;-59
2022/05/07 06:40:03;;;;;;;33.33;25.27;;;;;;;;;;5006560;28;20038;-59
2022/05/07 06:42:29;;;;;;;36.85;26.63;;;;;;;;;;4999672;28;20036;-59
2022/05/07 06:44:55;;;;;;;33.13;23.92;;;;;;;;;;5000430;28;20124;-58
2022/05/07 06:47:22;;;;;;;33.80;25.30;;;;;;;;;;5015107;28;20121;-59
2022/05/07 06:49:48;;;;;;;37.42;24.67;;;;;;;;;;5008979;28;20452;-59
2022/05/07 06:52:14;;;;;;;35.50;24.77;;;;;;;;;;5013727;28;20076;-58
2022/05/07 06:54:40;;;;;;;35.17;24.92;;;;;;;;;;5024604;28;20451;-58
2022/05/07 06:57:07;;;;;;;36.70;24.88;;;;;;;;;;5003390;28;20034;-58
2022/05/07 06:59:33;;;;;;;34.72;25.27;;;;;;;;;;5014587;28;20034;-58
2022/05/07 07:01:59;;;;;;;33.63;25.35;;;;;;;;;;5018359;28;20399;-59
2022/05/07 07:04:25;;;;;;;34.60;24.67;;;;;;;;;;5012628;28;20041;-59
2022/05/07 07:06:51;;;;;;;34.22;24.83;;;;;;;;;;5021841;28;20037;-59
2022/05/07 07:09:18;;;;;;;32.70;24.98;;;;;;;;;;5012181;28;20521;-59
2022/05/07 07:11:44;;;;;;;40.03;25.90;;;;;;;;;;5009449;28;20034;-59
2022/05/07 07:14:10;;;;;;;35.63;25.02;;;;;;;;;;5026763;28;20029;-59
2022/05/07 07:16:36;;;;;;;35.08;26.17;;;;;;;;;;5015657;28;20038;-58
2022/05/07 07:19:03;;;;;;;39.92;26.85;;;;;;;;;;5019217;28;20041;-58
2022/05/07 07:21:29;;;;;;;31.40;25.42;;;;;;;;;;4999187;28;20042;-58
2022/05/07 07:23:55;;;;;;;37.50;25.88;;;;;;;;;;5015545;28;20040;-58
2022/05/07 07:26:21;;;;;;;32.95;25.13;;;;;;;;;;5014568;28;20076;-58
2022/05/07 07:28:47;;;;;;;33.42;24.58;;;;;;;;;;5024920;28;20052;-58
2022/05/07 07:31:13;;;;;;;33.13;24.15;;;;;;;;;;5011708;28;20041;-58
2022/05/07 07:33:39;;;;;;;35.08;24.70;;;;;;;;;;5010780;28;20041;-58
2022/05/07 07:36:06;;;;;;;34.63;24.75;;;;;;;;;;5000008;28;20042;-58
2022/05/07 07:38:32;;;;;;;31.90;24.80;;;;;;;;;;5018878;28;20073;-58
2022/05/07 07:40:58;;;;;;;40.88;24.92;;;;;;;;;;5020099;28;20400;-59
2022/05/07 07:43:24;;;;;;;34.85;24.42;;;;;;;;;;5010967;28;20037;-58
2022/05/07 07:48:35;;;;;;;34.83;23.73;;;;;;;;;;5016445;28;20407;-58
2022/05/07 07:51:01;;;;;;;33.38;23.75;;;;;;;;;;5016642;28;20042;-58
2022/05/07 07:53:27;;;;;;;27.73;22.50;;;;;;;;;;5013265;28;20037;-58
2022/05/07 07:55:54;;;;;;;31.08;21.92;;;;;;;;;;5008908;28;20385;-58
2022/05/07 07:58:20;;;;;;;28.23;19.42;;;;;;;;;;5021141;28;20498;-58
2022/05/07 08:00:46;;;;;;;30.30;21.08;;;;;;;;;;5010646;28;20531;-59
2022/05/07 08:03:13;;;;;;;30.15;20.02;;;;;;;;;;4996505;28;20042;-59
2022/05/07 08:05:39;;;;;;;29.27;21.00;;;;;;;;;;5001648;28;20169;-59
2022/05/07 08:13:36;;;;;;;26.10;18.25;;;;;;;;;;5017496;28;20054;-58
2022/05/07 08:16:03;;;;;;;29.90;19.45;;;;;;;;;;5026512;28;20045;-59
2022/05/07 08:18:29;;;;;;;25.70;18.38;;;;;;;;;;5005364;28;20036;-59
2022/05/07 08:20:56;;;;;;;27.98;18.60;;;;;;;;;;5000078;28;20046;-58
2022/05/07 08:23:22;;;;;;;28.30;18.42;;;;;;;;;;5020244;28;20050;-59
2022/05/07 08:25:48;;;;;;;27.55;18.60;;;;;;;;;;5014121;28;20111;-59
2022/05/07 08:28:15;;;;;;;25.15;18.08;;;;;;;;;;5013969;28;20034;-59
2022/05/07 08:30:41;;;;;;;27.98;18.42;;;;;;;;;;5009827;28;20081;-59
2022/05/07 08:33:07;;;;;;;24.38;17.10;;;;;;;;;;5001590;28;20419;-59
2022/05/07 08:35:33;;;;;;;21.70;15.27;;;;;;;;;;5018164;28;20569;-59
2022/05/07 08:37:59;;;;;;;21.02;14.23;;;;;;;;;;5030731;28;20488;-59
2022/05/07 08:40:27;;;;;;;22.90;15.43;;;;;;;;;;5011865;28;20495;-59
2022/05/07 08:42:53;;;;;;;28.50;15.90;;;;;;;;;;5024600;22;20065;-63
2022/05/07 08:45:19;;;;;;;21.85;15.07;;;;;;;;;;5047264;28;20053;-64
2022/05/07 08:47:46;;;;;;;23.05;15.73;;;;;;;;;;5045742;28;20082;-64
2022/05/07 08:50:14;;;;;;;23.92;17.00;;;;;;;;;;5044281;28;20041;-64
2022/05/07 08:52:42;;;;;;;22.23;15.85;;;;;;;;;;5049397;28;20033;-64
2022/05/07 08:55:12;;;;;;;27.63;15.75;;;;;;;;;;5033486;28;20037;-64
2022/05/07 08:57:39;;;;;;;26.17;15.43;;;;;;;;;;5030713;28;20399;-64
2022/05/07 09:00:06;;;;;;;23.00;14.68;;;;;;;;;;5031175;28;20053;-64
2022/05/07 09:02:41;;;;;;;23.67;14.30;;;;;;;;;;5027242;28;20037;-64
2022/05/07 09:05:07;;;;;;;22.73;14.05;;;;;;;;;;5038880;28;20086;-64
2022/05/07 09:07:33;;;;;;;24.48;13.68;;;;;;;;;;5030608;28;20033;-64
2022/05/07 09:09:59;;;;;;;25.17;14.10;;;;;;;;;;5031266;28;20452;-64
2022/05/07 09:12:28;;;;;;;23.20;14.45;;;;;;;;;;5030881;28;20037;-64
2022/05/07 09:14:55;;;;;;;27.50;14.13;;;;;;;;;;5029720;28;20042;-64
2022/05/07 09:17:21;;;;;;;24.65;14.75;;;;;;;;;;5031260;28;20449;-64
2022/05/07 09:19:47;;;;;;;23.52;14.25;;;;;;;;;;5034038;28;20049;-64
2022/05/07 09:22:13;;;;;;;24.55;14.77;;;;;;;;;;5034069;28;20034;-64
2022/05/07 09:24:40;;;;;;;23.23;14.38;;;;;;;;;;5039099;28;20501;-64
2022/05/07 09:27:06;;;;;;;20.35;14.23;;;;;;;;;;5039238;28;20044;-64
2022/05/07 09:29:32;;;;;;;20.50;12.85;;;;;;;;;;5040226;28;20082;-64
2022/05/07 09:32:08;;;;;;;22.88;14.13;;;;;;;;;;5035448;28;20040;-64
2022/05/07 09:37:33;;;;;;;23.27;14.18;;;;;;;;;;5033921;28;20041;-64
2022/05/07 09:40:02;;;;;;;22.38;14.07;;;;;;;;;;5034368;28;20098;-64
2022/05/07 09:42:28;;;;;;;23.70;14.77;;;;;;;;;;5033880;28;20042;-63
2022/05/07 09:44:55;;;;;;;24.73;14.43;;;;;;;;;;5031201;28;20226;-64
2022/05/07 09:47:20;;;;;;;24.92;15.35;;;;;;;;;;5036493;28;20041;-64
2022/05/07 09:52:32;;;;;;;27.33;15.75;;;;;;;;;;5053464;28;20045;-64
2022/05/07 09:57:43;;;;;;;25.55;16.20;;;;;;;;;;5053159;28;20046;-64
2022/05/07 10:00:13;;;;;;;24.73;16.13;;;;;;;;;;5043739;28;20532;-64
2022/05/07 10:02:58;;;;;;;27.90;17.25;;;;;;;;;;5037209;28;20033;-64
2022/05/07 10:05:39;;;;;;;24.67;15.68;;;;;;;;;;5044911;28;20411;-64
2022/05/07 10:08:24;;;;;;;24.70;16.77;;;;;;;;;;5052895;28;20135;-64
2022/05/07 10:10:51;;;;;;;25.17;16.50;;;;;;;;;;5053225;28;20040;-64
2022/05/07 10:13:17;;;;;;;22.30;16.25;;;;;;;;;;5050542;28;20103;-64
2022/05/07 10:15:45;;;;;;;26.55;17.55;;;;;;;;;;5045139;28;20072;-64
2022/05/07 10:18:14;;;;;;;29.13;18.15;;;;;;;;;;5041938;28;20037;-64
2022/05/07 10:20:48;;;;;;;26.67;17.80;;;;;;;;;;5048712;28;20041;-64
2022/05/07 10:23:16;;;;;;;31.58;19.15;;;;;;;;;;5033324;28;20119;-64
2022/05/07 10:25:43;;;;;;;27.75;18.73;;;;;;;;;;5033308;28;20061;-64
2022/05/07 10:28:15;;;;;;;30.38;19.50;;;;;;;;;;5032686;28;20037;-64
2022/05/07 10:30:45;;;;;;;27.65;19.70;;;;;;;;;;5038794;28;20041;-64
2022/05/07 10:33:11;;;;;;;27.08;18.70;;;;;;;;;;5040784;28;20399;-63
2022/05/07 10:35:38;;;;;;;33.38;19.20;;;;;;;;;;5026825;28;20042;-64
2022/05/07 10:38:23;;;;;;;32.53;20.25;;;;;;;;;;5015050;28;20034;-64
2022/05/07 10:40:52;;;;;;;29.58;19.58;;;;;;;;;;5028464;28;20080;-64
2022/05/07 10:43:28;;;;;;;33.45;22.38;;;;;;;;;;5035574;28;20037;-64
2022/05/07 10:45:56;;;;;;;33.92;21.25;;;;;;;;;;5023555;28;20033;-64
2022/05/07 10:48:21;;;;;;;36.13;21.52;;;;;;;;;;5020845;28;20070;-64
2022/05/07 10:50:51;;;;;;;33.20;22.98;;;;;;;;;;5014219;28;20523;-64
2022/05/07 10:53:18;;;;;;;32.90;22.40;;;;;;;;;;5031289;28;20487;-63
2022/05/07 10:55:44;;;;;;;31.70;22.48;;;;;;;;;;5022103;28;20454;-64
2022/05/07 10:58:10;;;;;;;35.45;22.83;;;;;;;;;;5031614;28;20033;-64
2022/05/07 11:00:36;;;;;;;36.33;22.52;;;;;;;;;;5027153;28;20048;-64
2022/05/07 11:03:02;;;;;;;32.42;22.48;;;;;;;;;;5032792;28;20124;-63
2022/05/07 11:05:29;;;;;;;34.08;23.13;;;;;;;;;;5032952;28;20172;-64
2022/05/07 11:07:59;;;;;;;35.85;23.40;;;;;;;;;;5022221;28;20068;-64
2022/05/07 11:10:25;;;;;;;34.60;22.58;;;;;;;;;;5015328;28;20075;-64
2022/05/07 11:12:51;;;;;;;34.10;22.73;;;;;;;;;;5036965;28;20039;-64
2022/05/07 11:15:24;;;;;;;30.15;21.63;;;;;;;;;;5033730;28;20053;-64
2022/05/07 11:17:50;;;;;;;34.45;23.85;;;;;;;;;;5040710;28;20045;-64
2022/05/07 11:20:16;;;;;;;40.70;25.35;;;;;;;;;;5032412;28;20052;-64
2022/05/07 11:22:42;;;;;;;32.30;21.63;;;;;;;;;;5026255;28;20069;-64
2022/05/07 11:25:09;;;;;;;31.00;21.10;;;;;;;;;;5018882;28;20038;-64
2022/05/07 11:27:35;;;;;;;35.08;22.52;;;;;;;;;;5040413;28;20466;-63
2022/05/07 11:30:02;;;;;;;38.58;22.38;;;;;;;;;;5037872;28;20029;-64
2022/05/07 11:32:38;;;;;;;36.13;24.02;;;;;;;;;;5025581;28;20038;-64
2022/05/07 11:35:04;;;;;;;36.58;24.45;;;;;;;;;;5012479;28;20077;-64
2022/05/07 11:37:37;;;;;;;33.88;23.23;;;;;;;;;;5011862;28;20042;-64
2022/05/07 11:40:03;;;;;;;35.97;25.00;;;;;;;;;;5018730;28;20037;-64
2022/05/07 11:42:33;;;;;;;31.45;22.55;;;;;;;;;;5038544;28;20044;-64
2022/05/07 11:47:58;;;;;;;34.03;22.80;;;;;;;;;;5047948;28;20300;-64
2022/05/07 11:50:25;;;;;;;33.05;21.92;;;;;;;;;;5029085;28;20783;-64
2022/05/07 11:52:52;;;;;;;32.67;22.02;;;;;;;;;;5011864;28;20352;-64
2022/05/07 11:55:23;;;;;;;28.08;15.98;;;;;;;;;;5038661;28;20041;-64
2022/05/07 11:57:49;;;;;;;22.85;15.30;;;;;;;;;;5031593;28;20034;-64
2022/05/07 12:00:16;;;;;;;24.90;15.93;;;;;;;;;;5045737;28;20048;-64
2022/05/07 12:02:52;;;;;;;24.58;17.52;;;;;;;;;;5051225;28;20090;-64
2022/05/07 12:05:18;;;;;;;24.42;17.67;;;;;;;;;;5051584;28;20048;-64
2022/05/07 12:07:46;;;;;;;25.33;17.52;;;;;;;;;;5013636;28;20033;-64
2022/05/07 12:10:12;;;;;;;24.35;16.55;;;;;;;;;;5039896;28;20033;-64
2022/05/07 12:12:38;;;;;;;25.55;17.88;;;;;;;;;;5039273;28;20029;-64
2022/05/07 12:15:04;;;;;;;25.25;16.75;;;;;;;;;;5047855;28;20407;-64
2022/05/07 12:20:15;;;;;;;24.85;17.92;;;;;;;;;;5029734;28;20503;-64
2022/05/07 12:30:55;;;;;;;24.58;18.13;;;;;;;;;;5032078;28;20480;-64
2022/05/07 12:33:21;;;;;;;25.05;17.30;;;;;;;;;;5026549;28;20034;-64
2022/05/07 12:35:49;;;;;;;26.67;18.85;;;;;;;;;;5028633;28;20557;-64
2022/05/07 12:38:15;;;;;;;26.00;19.80;;;;;;;;;;5031506;28;20130;-64
2022/05/07 12:40:41;;;;;;;27.33;18.60;;;;;;;;;;5030893;28;20044;-64
2022/05/07 12:43:07;;;;;;;28.10;18.60;;;;;;;;;;5030555;28;20033;-64
2022/05/07 12:45:34;;;;;;;26.98;18.77;;;;;;;;;;5029502;28;20088;-64
2022/05/07 12:48:01;;;;;;;29.30;19.35;;;;;;;;;;5012781;28;20466;-64
2022/05/07 12:50:27;;;;;;;25.35;17.85;;;;;;;;;;5012387;28;20049;-64
2022/05/07 12:52:53;;;;;;;23.83;17.60;;;;;;;;;;5045071;28;20094;-64
2022/05/07 12:55:19;;;;;;;24.80;17.65;;;;;;;;;;5033470;28;20046;-64
2022/05/07 12:57:45;;;;;;;23.77;17.58;;;;;;;;;;5042330;28;20040;-64
2022/05/07 13:00:11;;;;;;;26.80;18.10;;;;;;;;;;5045948;28;20033;-64
2022/05/07 13:02:37;;;;;;;30.13;18.27;;;;;;;;;;5039742;28;20037;-64
2022/05/07 13:05:03;;;;;;;28.75;18.30;;;;;;;;;;5037945;28;20099;-64
2022/05/07 13:07:30;;;;;;;26.30;17.55;;;;;;;;;;5033931;28;20454;-64
2022/05/07 13:09:56;;;;;;;82.38;30.40;;;;;;;;;;5042830;28;20037;-64
2022/05/07 13:12:24;;;;;;;27.67;18.98;;;;;;;;;;5020319;28;20038;-64
2022/05/07 13:14:50;;;;;;;31.33;20.80;;;;;;;;;;5019752;28;20046;-64
2022/05/07 13:17:16;;;;;;;42.55;21.23;;;;;;;;;;5040449;28;20403;-64
2022/05/07 13:19:42;;;;;;;31.52;19.23;;;;;;;;;;5040892;28;20083;-64
2022/05/07 13:22:08;;;;;;;34.05;21.15;;;;;;;;;;5034499;28;20044;-64
2022/05/07 13:24:34;;;;;;;32.40;20.38;;;;;;;;;;5034214;28;20069;-64
2022/05/07 13:27:00;;;;;;;44.67;23.88;;;;;;;;;;5034137;28;20073;-64
2022/05/07 13:29:28;;;;;;;27.30;18.52;;;;;;;;;;5033434;28;20037;-63
2022/05/07 13:31:57;;;;;;;29.65;19.08;;;;;;;;;;5034451;28;20099;-64
2022/05/07 13:34:23;;;;;;;29.90;18.85;;;;;;;;;;5022436;28;20049;-63
2022/05/07 13:36:49;;;;;;;26.98;18.85;;;;;;;;;;5034260;28;20041;-63
2022/05/07 13:39:15;;;;;;;33.42;20.42;;;;;;;;;;5021992;28;20049;-63
2022/05/07 13:41:41;;;;;;;40.65;24.38;;;;;;;;;;5033119;28;20037;-63
2022/05/07 13:44:10;;;;;;;37.80;23.10;;;;;;;;;;5042071;28;20049;-63
2022/05/07 13:46:37;;;;;;;34.72;23.20;;;;;;;;;;5035151;28;20056;-63
2022/05/07 13:49:03;;;;;;;34.78;22.60;;;;;;;;;;5031181;28;20049;-63
2022/05/07 13:51:29;;;;;;;35.38;24.15;;;;;;;;;;5030698;28;21925;-63
2022/05/07 13:53:57;;;;;;;36.90;23.90;;;;;;;;;;5041668;28;20029;-63
2022/05/07 13:56:23;;;;;;;36.70;21.63;;;;;;;;;;5034877;28;20056;-63
2022/05/07 13:58:49;;;;;;;31.92;19.85;;;;;;;;;;5044295;28;20047;-63
2022/05/07 14:01:15;;;;;;;30.25;17.52;;;;;;;;;;5053606;28;20044;-63
2022/05/07 14:03:41;;;;;;;30.08;18.73;;;;;;;;;;5029865;28;20116;-63
2022/05/07 14:06:07;;;;;;;28.58;17.00;;;;;;;;;;5028147;28;20141;-63
2022/05/07 14:08:33;;;;;;;31.67;19.38;;;;;;;;;;5022029;28;20041;-61
2022/05/07 14:11:00;;;;;;;28.33;17.58;;;;;;;;;;5023665;28;20040;-61
2022/05/07 14:13:26;;;;;;;35.00;19.13;;;;;;;;;;5030686;28;20033;-60
2022/05/07 14:15:52;;;;;;;26.02;16.77;;;;;;;;;;5027245;28;20037;-62
2022/05/07 14:18:18;;;;;;;27.67;17.90;;;;;;;;;;5020800;28;20056;-62
2022/05/07 14:20:44;;;;;;;28.27;18.25;;;;;;;;;;5025926;28;20084;-62
2022/05/07 14:23:13;;;;;;;24.90;16.08;;;;;;;;;;5036488;28;20124;-62
2022/05/07 14:25:39;;;;;;;25.00;17.00;;;;;;;;;;5024031;28;20048;-62
2022/05/07 14:28:05;;;;;;;24.90;15.98;;;;;;;;;;5027539;28;20038;-62
2022/05/07 14:30:31;;;;;;;26.70;16.08;;;;;;;;;;5032006;28;20115;-62
2022/05/07 14:32:57;;;;;;;25.08;15.73;;;;;;;;;;5040466;28;20057;-62
2022/05/07 14:35:23;;;;;;;22.42;13.50;;;;;;;;;;5037136;28;20095;-62
2022/05/07 14:37:49;;;;;;;21.35;13.85;;;;;;;;;;5044541;28;20037;-62
2022/05/07 14:40:34;;;;;;;21.40;14.10;;;;;;;;;;5031285;28;20381;-61
2022/05/07 14:43:03;;;;;;;19.30;12.63;;;;;;;;;;5050155;22;20128;-61
2022/05/07 14:45:33;;;;;;;22.35;13.80;;;;;;;;;;5018433;28;20042;-61
2022/05/07 14:47:59;;;;;;;20.13;13.40;;;;;;;;;;5028559;28;20495;-60
2022/05/07 14:50:26;;;;;;;22.73;14.27;;;;;;;;;;5029625;28;20291;-61
2022/05/07 14:52:52;;;;;;;22.08;14.57;;;;;;;;;;5031705;28;20036;-61
2022/05/07 14:55:18;;;;;;;22.80;13.55;;;;;;;;;;5031447;28;20041;-61